sensor_id;sensor_type;location;lat;lon;timestamp;temperature;humidity
18126;DHT22;53956;52.442;13.284;2023-02-15T00:01:06;8.00;99.90
18126;DHT22;53956;52.442;13.284;2023-02-15T00:03:35;8.00;99.90
18126;DHT22;53956;52.442;13.284;2023-02-15T00:06:02;7.90;99.90
18126;DHT22;53956;52.442;13.284;2023-02-15T00:08:29;7.90;99.90
18126;DHT22;53956;52.442;13.284;2023-02-15T00:11:04;8.10;99.90
18126;DHT22;53956;52.442;13.284;2023-02-15T00:13:31;8.00;99.90
18126;DHT22;53956;52.442;13.284;2023-02-15T00:16:01;8.00;99.90
18126;DHT22;53956;52.442;13.284;2023-02-15T00:18:27;7.80;99.90
18126;DHT22;53956;52.442;13.284;2023-02-15T00:20:55;8.00;99.90
18126;DHT22;53956;52.442;13.284;2023-02-15T00:23:22;8.00;99.90
18126;DHT22;53956;52.442;13.284;2023-02-15T00:25:49;8.00;99.90
18126;DHT22;53956;52.442;13.284;2023-02-15T00:28:16;7.90;99.90
18126;DHT22;53956;52.442;13.284;2023-02-15T00:30:42;7.90;99.90
18126;DHT22;53956;52.442;13.284;2023-02-15T00:33:09;7.80;99.90
18126;DHT22;53956;52.442;13.284;2023-02-15T00:35:36;7.80;99.90
18126;DHT22;53956;52.442;13.284;2023-02-15T00:38:04;7.90;99.90
18126;DHT22;53956;52.442;13.284;2023-02-15T00:40:30;7.90;99.90
18126;DHT22;53956;52.442;13.284;2023-02-15T00:42:57;7.90;99.90
18126;DHT22;53956;52.442;13.284;2023-02-15T00:45:24;7.70;99.90
18126;DHT22;53956;52.442;13.284;2023-02-15T00:47:51;7.70;99.90
18126;DHT22;53956;52.442;13.284;2023-02-15T00:50:17;7.80;99.90
18126;DHT22;53956;52.442;13.284;2023-02-15T00:52:45;7.70;99.90
18126;DHT22;53956;52.442;13.284;2023-02-15T00:55:13;7.60;99.90
18126;DHT22;53956;52.442;13.284;2023-02-15T00:57:40;7.40;99.90
18126;DHT22;53956;52.442;13.284;2023-02-15T01:00:07;7.60;99.90
18126;DHT22;53956;52.442;13.284;2023-02-15T01:02:34;7.60;99.90
18126;DHT22;53956;52.442;13.284;2023-02-15T01:05:01;7.50;99.90
18126;DHT22;53956;52.442;13.284;2023-02-15T01:07:28;7.70;99.90
18126;DHT22;53956;52.442;13.284;2023-02-15T01:09:54;7.60;99.90
18126;DHT22;53956;52.442;13.284;2023-02-15T01:12:22;7.60;99.90
18126;DHT22;53956;52.442;13.284;2023-02-15T01:14:49;7.60;99.90
18126;DHT22;53956;52.442;13.284;2023-02-15T01:17:15;7.50;99.90
18126;DHT22;53956;52.442;13.284;2023-02-15T01:19:42;7.40;99.90
18126;DHT22;53956;52.442;13.284;2023-02-15T01:22:09;7.50;99.90
18126;DHT22;53956;52.442;13.284;2023-02-15T01:24:35;7.70;99.90
18126;DHT22;53956;52.442;13.284;2023-02-15T01:27:02;7.50;99.90
18126;DHT22;53956;52.442;13.284;2023-02-15T01:29:31;7.50;99.90
18126;DHT22;53956;52.442;13.284;2023-02-15T01:31:57;7.50;99.90
18126;DHT22;53956;52.442;13.284;2023-02-15T01:34:24;7.40;99.90
18126;DHT22;53956;52.442;13.284;2023-02-15T01:36:51;7.50;99.90
18126;DHT22;53956;52.442;13.284;2023-02-15T01:39:17;7.50;99.90
18126;DHT22;53956;52.442;13.284;2023-02-15T01:41:44;7.50;99.90
18126;DHT22;53956;52.442;13.284;2023-02-15T01:44:52;7.40;99.90
18126;DHT22;53956;52.442;13.284;2023-02-15T01:47:23;7.30;99.90
18126;DHT22;53956;52.442;13.284;2023-02-15T01:49:56;7.50;99.90
18126;DHT22;53956;52.442;13.284;2023-02-15T01:52:24;7.40;99.90
18126;DHT22;53956;52.442;13.284;2023-02-15T01:54:50;7.30;99.90
18126;DHT22;53956;52.442;13.284;2023-02-15T01:57:21;7.40;99.90
18126;DHT22;53956;52.442;13.284;2023-02-15T01:59:53;7.20;99.90
18126;DHT22;53956;52.442;13.284;2023-02-15T02:02:21;7.30;99.90
18126;DHT22;53956;52.442;13.284;2023-02-15T02:04:57;7.30;99.90
18126;DHT22;53956;52.442;13.284;2023-02-15T02:07:27;7.30;99.90
18126;DHT22;53956;52.442;13.284;2023-02-15T02:09:55;7.30;99.90
18126;DHT22;53956;52.442;13.284;2023-02-15T02:12:23;7.40;99.90
18126;DHT22;53956;52.442;13.284;2023-02-15T02:14:51;7.30;99.90
18126;DHT22;53956;52.442;13.284;2023-02-15T02:17:24;7.20;99.90
18126;DHT22;53956;52.442;13.284;2023-02-15T02:20:16;7.30;99.90
18126;DHT22;53956;52.442;13.284;2023-02-15T02:23:10;7.30;99.90
18126;DHT22;53956;52.442;13.284;2023-02-15T02:28:31;7.30;99.90
18126;DHT22;53956;52.442;13.284;2023-02-15T02:34:01;7.20;99.90
18126;DHT22;53956;52.442;13.284;2023-02-15T02:36:36;7.20;99.90
18126;DHT22;53956;52.442;13.284;2023-02-15T02:39:12;7.20;99.90
18126;DHT22;53956;52.442;13.284;2023-02-15T02:41:48;7.20;99.90
18126;DHT22;53956;52.442;13.284;2023-02-15T02:44:22;7.20;99.90
18126;DHT22;53956;52.442;13.284;2023-02-15T02:46:53;7.20;99.90
18126;DHT22;53956;52.442;13.284;2023-02-15T02:49:32;7.20;99.90
18126;DHT22;53956;52.442;13.284;2023-02-15T02:52:00;7.10;99.90
18126;DHT22;53956;52.442;13.284;2023-02-15T02:54:28;6.70;99.90
18126;DHT22;53956;52.442;13.284;2023-02-15T02:56:56;7.00;99.90
18126;DHT22;53956;52.442;13.284;2023-02-15T02:59:29;7.00;99.90
18126;DHT22;53956;52.442;13.284;2023-02-15T03:02:01;7.00;99.90
18126;DHT22;53956;52.442;13.284;2023-02-15T03:04:36;6.80;99.90
18126;DHT22;53956;52.442;13.284;2023-02-15T03:07:06;6.90;99.90
18126;DHT22;53956;52.442;13.284;2023-02-15T03:09:37;6.90;99.90
18126;DHT22;53956;52.442;13.284;2023-02-15T03:12:08;6.80;99.90
18126;DHT22;53956;52.442;13.284;2023-02-15T03:14:41;7.10;99.90
18126;DHT22;53956;52.442;13.284;2023-02-15T03:17:11;7.10;99.90
18126;DHT22;53956;52.442;13.284;2023-02-15T03:19:40;7.00;99.90
18126;DHT22;53956;52.442;13.284;2023-02-15T03:22:12;6.80;99.90
18126;DHT22;53956;52.442;13.284;2023-02-15T03:24:43;6.90;99.90
18126;DHT22;53956;52.442;13.284;2023-02-15T03:27:15;6.70;99.90
18126;DHT22;53956;52.442;13.284;2023-02-15T03:29:47;6.90;99.90
18126;DHT22;53956;52.442;13.284;2023-02-15T03:32:16;6.80;99.90
18126;DHT22;53956;52.442;13.284;2023-02-15T03:34:45;6.90;99.90
18126;DHT22;53956;52.442;13.284;2023-02-15T03:37:17;6.90;99.90
18126;DHT22;53956;52.442;13.284;2023-02-15T03:39:51;6.60;99.90
18126;DHT22;53956;52.442;13.284;2023-02-15T03:42:24;6.80;99.90
18126;DHT22;53956;52.442;13.284;2023-02-15T03:44:56;6.80;99.90
18126;DHT22;53956;52.442;13.284;2023-02-15T03:47:27;6.70;99.90
18126;DHT22;53956;52.442;13.284;2023-02-15T03:49:59;6.50;99.90
18126;DHT22;53956;52.442;13.284;2023-02-15T03:52:27;6.70;99.90
18126;DHT22;53956;52.442;13.284;2023-02-15T03:54:54;6.40;99.90
18126;DHT22;53956;52.442;13.284;2023-02-15T03:57:23;6.80;99.90
18126;DHT22;53956;52.442;13.284;2023-02-15T04:00:14;6.70;99.90
18126;DHT22;53956;52.442;13.284;2023-02-15T04:03:11;6.80;99.90
18126;DHT22;53956;52.442;13.284;2023-02-15T04:05:41;6.60;99.90
18126;DHT22;53956;52.442;13.284;2023-02-15T04:08:08;6.30;99.90
18126;DHT22;53956;52.442;13.284;2023-02-15T04:10:35;6.40;99.90
18126;DHT22;53956;52.442;13.284;2023-02-15T04:13:29;6.60;99.90
18126;DHT22;53956;52.442;13.284;2023-02-15T04:15:56;6.60;99.90
18126;DHT22;53956;52.442;13.284;2023-02-15T04:18:29;6.40;99.90
18126;DHT22;53956;52.442;13.284;2023-02-15T04:21:14;6.30;99.90
18126;DHT22;53956;52.442;13.284;2023-02-15T04:23:59;6.60;99.90
18126;DHT22;53956;52.442;13.284;2023-02-15T04:26:43;6.50;99.90
18126;DHT22;53956;52.442;13.284;2023-02-15T04:29:10;6.10;99.90
18126;DHT22;53956;52.442;13.284;2023-02-15T04:31:36;6.30;99.90
18126;DHT22;53956;52.442;13.284;2023-02-15T04:34:03;6.20;99.90
18126;DHT22;53956;52.442;13.284;2023-02-15T04:36:31;6.40;99.90
18126;DHT22;53956;52.442;13.284;2023-02-15T04:38:58;6.30;99.90
18126;DHT22;53956;52.442;13.284;2023-02-15T04:41:24;6.20;99.90
18126;DHT22;53956;52.442;13.284;2023-02-15T04:43:51;6.10;99.90
18126;DHT22;53956;52.442;13.284;2023-02-15T04:46:18;6.20;99.90
18126;DHT22;53956;52.442;13.284;2023-02-15T04:48:44;6.20;99.90
18126;DHT22;53956;52.442;13.284;2023-02-15T04:51:11;6.10;99.90
18126;DHT22;53956;52.442;13.284;2023-02-15T04:53:39;5.80;99.90
18126;DHT22;53956;52.442;13.284;2023-02-15T04:56:05;6.00;99.90
18126;DHT22;53956;52.442;13.284;2023-02-15T04:58:32;6.20;99.90
18126;DHT22;53956;52.442;13.284;2023-02-15T05:01:00;6.00;99.90
18126;DHT22;53956;52.442;13.284;2023-02-15T05:03:27;6.00;99.90
18126;DHT22;53956;52.442;13.284;2023-02-15T05:05:54;6.10;99.90
18126;DHT22;53956;52.442;13.284;2023-02-15T05:08:20;6.00;99.90
18126;DHT22;53956;52.442;13.284;2023-02-15T05:10:49;6.20;99.90
18126;DHT22;53956;52.442;13.284;2023-02-15T05:13:15;6.00;99.90
18126;DHT22;53956;52.442;13.284;2023-02-15T05:15:46;6.40;99.90
18126;DHT22;53956;52.442;13.284;2023-02-15T05:18:13;6.40;99.90
18126;DHT22;53956;52.442;13.284;2023-02-15T05:20:40;6.40;99.90
18126;DHT22;53956;52.442;13.284;2023-02-15T05:23:06;6.10;99.90
18126;DHT22;53956;52.442;13.284;2023-02-15T05:25:33;6.00;99.90
18126;DHT22;53956;52.442;13.284;2023-02-15T05:28:19;6.30;99.90
18126;DHT22;53956;52.442;13.284;2023-02-15T05:30:46;6.20;99.90
18126;DHT22;53956;52.442;13.284;2023-02-15T05:33:12;5.90;99.90
18126;DHT22;53956;52.442;13.284;2023-02-15T05:35:39;6.10;99.90
18126;DHT22;53956;52.442;13.284;2023-02-15T05:38:06;5.90;99.90
18126;DHT22;53956;52.442;13.284;2023-02-15T05:40:32;5.70;99.90
18126;DHT22;53956;52.442;13.284;2023-02-15T05:42:59;5.70;99.90
18126;DHT22;53956;52.442;13.284;2023-02-15T05:45:27;5.90;99.90
18126;DHT22;53956;52.442;13.284;2023-02-15T05:47:54;6.00;99.90
18126;DHT22;53956;52.442;13.284;2023-02-15T05:50:20;6.00;99.90
18126;DHT22;53956;52.442;13.284;2023-02-15T05:52:47;5.90;99.90
18126;DHT22;53956;52.442;13.284;2023-02-15T05:55:14;6.00;99.90
18126;DHT22;53956;52.442;13.284;2023-02-15T05:57:41;5.70;99.90
18126;DHT22;53956;52.442;13.284;2023-02-15T06:00:08;5.80;99.90
18126;DHT22;53956;52.442;13.284;2023-02-15T06:02:40;5.80;99.90
18126;DHT22;53956;52.442;13.284;2023-02-15T06:05:08;5.70;99.90
18126;DHT22;53956;52.442;13.284;2023-02-15T06:07:34;5.60;99.90
18126;DHT22;53956;52.442;13.284;2023-02-15T06:10:02;5.90;99.90
18126;DHT22;53956;52.442;13.284;2023-02-15T06:12:28;5.90;99.90
18126;DHT22;53956;52.442;13.284;2023-02-15T06:14:56;5.90;99.90
18126;DHT22;53956;52.442;13.284;2023-02-15T06:17:22;6.00;99.90
18126;DHT22;53956;52.442;13.284;2023-02-15T06:19:50;5.80;99.90
18126;DHT22;53956;52.442;13.284;2023-02-15T06:22:17;5.70;99.90
18126;DHT22;53956;52.442;13.284;2023-02-15T06:24:44;5.60;99.90
18126;DHT22;53956;52.442;13.284;2023-02-15T06:27:10;5.70;99.90
18126;DHT22;53956;52.442;13.284;2023-02-15T06:29:37;5.60;99.90
18126;DHT22;53956;52.442;13.284;2023-02-15T06:32:04;5.80;99.90
18126;DHT22;53956;52.442;13.284;2023-02-15T06:34:31;5.60;99.90
18126;DHT22;53956;52.442;13.284;2023-02-15T06:36:59;5.50;99.90
18126;DHT22;53956;52.442;13.284;2023-02-15T06:39:26;5.80;99.90
18126;DHT22;53956;52.442;13.284;2023-02-15T06:41:52;5.60;99.90
18126;DHT22;53956;52.442;13.284;2023-02-15T06:44:19;5.00;99.90
18126;DHT22;53956;52.442;13.284;2023-02-15T06:46:46;5.30;99.90
18126;DHT22;53956;52.442;13.284;2023-02-15T06:49:12;5.30;99.90
18126;DHT22;53956;52.442;13.284;2023-02-15T06:51:39;5.30;99.90
18126;DHT22;53956;52.442;13.284;2023-02-15T06:54:07;5.30;99.90
18126;DHT22;53956;52.442;13.284;2023-02-15T06:56:34;5.30;99.90
18126;DHT22;53956;52.442;13.284;2023-02-15T06:59:01;5.30;99.90
18126;DHT22;53956;52.442;13.284;2023-02-15T07:01:27;5.20;99.90
18126;DHT22;53956;52.442;13.284;2023-02-15T07:03:54;5.20;99.90
18126;DHT22;53956;52.442;13.284;2023-02-15T07:06:21;5.20;99.90
18126;DHT22;53956;52.442;13.284;2023-02-15T07:08:47;5.10;99.90
18126;DHT22;53956;52.442;13.284;2023-02-15T07:11:16;5.20;99.90
18126;DHT22;53956;52.442;13.284;2023-02-15T07:14:00;5.20;99.90
18126;DHT22;53956;52.442;13.284;2023-02-15T07:16:27;5.10;99.90
18126;DHT22;53956;52.442;13.284;2023-02-15T07:18:53;5.10;99.90
18126;DHT22;53956;52.442;13.284;2023-02-15T07:21:20;5.30;99.90
18126;DHT22;53956;52.442;13.284;2023-02-15T07:23:47;5.20;99.90
18126;DHT22;53956;52.442;13.284;2023-02-15T07:26:13;5.30;99.90
18126;DHT22;53956;52.442;13.284;2023-02-15T07:28:41;5.10;99.90
18126;DHT22;53956;52.442;13.284;2023-02-15T07:31:08;5.40;99.90
18126;DHT22;53956;52.442;13.284;2023-02-15T07:33:35;5.40;99.90
18126;DHT22;53956;52.442;13.284;2023-02-15T07:36:03;5.40;99.90
18126;DHT22;53956;52.442;13.284;2023-02-15T07:38:31;5.50;99.90
18126;DHT22;53956;52.442;13.284;2023-02-15T07:40:58;5.40;99.90
18126;DHT22;53956;52.442;13.284;2023-02-15T07:43:25;5.00;99.90
18126;DHT22;53956;52.442;13.284;2023-02-15T07:45:53;5.20;99.90
18126;DHT22;53956;52.442;13.284;2023-02-15T07:48:20;5.40;99.90
18126;DHT22;53956;52.442;13.284;2023-02-15T07:50:47;4.70;99.90
18126;DHT22;53956;52.442;13.284;2023-02-15T07:53:14;5.00;99.90
18126;DHT22;53956;52.442;13.284;2023-02-15T07:55:40;5.10;99.90
18126;DHT22;53956;52.442;13.284;2023-02-15T07:58:07;5.50;99.90
18126;DHT22;53956;52.442;13.284;2023-02-15T08:00:34;5.50;99.90
18126;DHT22;53956;52.442;13.284;2023-02-15T08:03:24;5.90;99.90
18126;DHT22;53956;52.442;13.284;2023-02-15T08:05:55;5.60;99.90
18126;DHT22;53956;52.442;13.284;2023-02-15T08:08:22;5.50;99.90
18126;DHT22;53956;52.442;13.284;2023-02-15T08:10:59;5.20;99.90
18126;DHT22;53956;52.442;13.284;2023-02-15T08:13:44;5.20;99.90
18126;DHT22;53956;52.442;13.284;2023-02-15T08:16:24;5.30;99.90
18126;DHT22;53956;52.442;13.284;2023-02-15T08:18:52;5.60;99.90
18126;DHT22;53956;52.442;13.284;2023-02-15T08:21:20;5.60;99.90
18126;DHT22;53956;52.442;13.284;2023-02-15T08:23:47;5.10;99.90
18126;DHT22;53956;52.442;13.284;2023-02-15T08:26:14;5.60;99.90
18126;DHT22;53956;52.442;13.284;2023-02-15T08:28:42;5.60;99.90
18126;DHT22;53956;52.442;13.284;2023-02-15T08:31:10;5.40;99.90
18126;DHT22;53956;52.442;13.284;2023-02-15T08:33:39;5.20;99.90
18126;DHT22;53956;52.442;13.284;2023-02-15T08:36:09;5.20;99.90
18126;DHT22;53956;52.442;13.284;2023-02-15T08:38:36;5.30;99.90
18126;DHT22;53956;52.442;13.284;2023-02-15T08:41:15;5.40;99.90
18126;DHT22;53956;52.442;13.284;2023-02-15T08:43:42;5.30;99.90
18126;DHT22;53956;52.442;13.284;2023-02-15T08:46:10;5.10;99.90
18126;DHT22;53956;52.442;13.284;2023-02-15T08:48:38;4.80;99.90
18126;DHT22;53956;52.442;13.284;2023-02-15T08:51:08;5.10;99.90
18126;DHT22;53956;52.442;13.284;2023-02-15T08:53:36;5.10;99.90
18126;DHT22;53956;52.442;13.284;2023-02-15T08:56:03;5.10;99.90
18126;DHT22;53956;52.442;13.284;2023-02-15T08:58:30;5.20;99.90
18126;DHT22;53956;52.442;13.284;2023-02-15T09:00:57;5.20;99.90
18126;DHT22;53956;52.442;13.284;2023-02-15T09:03:24;5.40;99.90
18126;DHT22;53956;52.442;13.284;2023-02-15T09:05:53;5.60;99.90
18126;DHT22;53956;52.442;13.284;2023-02-15T09:08:24;5.80;99.90
18126;DHT22;53956;52.442;13.284;2023-02-15T09:10:50;5.80;99.90
18126;DHT22;53956;52.442;13.284;2023-02-15T09:13:17;5.40;99.90
18126;DHT22;53956;52.442;13.284;2023-02-15T09:15:44;5.80;99.90
18126;DHT22;53956;52.442;13.284;2023-02-15T09:18:11;5.80;99.90
18126;DHT22;53956;52.442;13.284;2023-02-15T09:20:42;5.80;99.90
18126;DHT22;53956;52.442;13.284;2023-02-15T09:23:09;5.80;99.90
18126;DHT22;53956;52.442;13.284;2023-02-15T09:25:37;5.80;99.90
18126;DHT22;53956;52.442;13.284;2023-02-15T09:28:04;6.00;99.90
18126;DHT22;53956;52.442;13.284;2023-02-15T09:30:30;5.90;99.90
18126;DHT22;53956;52.442;13.284;2023-02-15T09:32:57;5.80;99.90
18126;DHT22;53956;52.442;13.284;2023-02-15T09:35:24;6.20;99.90
18126;DHT22;53956;52.442;13.284;2023-02-15T09:37:51;5.90;99.90
18126;DHT22;53956;52.442;13.284;2023-02-15T09:40:18;5.70;99.90
18126;DHT22;53956;52.442;13.284;2023-02-15T09:42:58;5.80;99.90
18126;DHT22;53956;52.442;13.284;2023-02-15T09:45:42;5.60;99.90
18126;DHT22;53956;52.442;13.284;2023-02-15T09:48:29;6.00;99.90
18126;DHT22;53956;52.442;13.284;2023-02-15T09:51:27;6.30;99.90
18126;DHT22;53956;52.442;13.284;2023-02-15T09:54:07;6.30;99.90
18126;DHT22;53956;52.442;13.284;2023-02-15T09:56:39;5.80;99.90
18126;DHT22;53956;52.442;13.284;2023-02-15T09:59:15;6.00;99.90
18126;DHT22;53956;52.442;13.284;2023-02-15T10:01:50;6.10;99.90
18126;DHT22;53956;52.442;13.284;2023-02-15T10:04:36;6.10;99.90
18126;DHT22;53956;52.442;13.284;2023-02-15T10:07:14;6.40;99.90
18126;DHT22;53956;52.442;13.284;2023-02-15T10:09:55;6.50;99.90
18126;DHT22;53956;52.442;13.284;2023-02-15T10:12:36;6.20;99.90
18126;DHT22;53956;52.442;13.284;2023-02-15T10:15:21;6.00;99.90
18126;DHT22;53956;52.442;13.284;2023-02-15T10:18:05;6.10;99.90
18126;DHT22;53956;52.442;13.284;2023-02-15T10:20:41;6.20;99.90
18126;DHT22;53956;52.442;13.284;2023-02-15T10:23:26;6.40;99.90
18126;DHT22;53956;52.442;13.284;2023-02-15T10:26:01;6.60;99.90
18126;DHT22;53956;52.442;13.284;2023-02-15T10:28:41;6.20;99.90
18126;DHT22;53956;52.442;13.284;2023-02-15T10:31:19;6.30;99.90
18126;DHT22;53956;52.442;13.284;2023-02-15T10:34:12;5.90;99.90
18126;DHT22;53956;52.442;13.284;2023-02-15T10:39:40;6.80;99.90
18126;DHT22;53956;52.442;13.284;2023-02-15T10:42:13;7.00;99.90
18126;DHT22;53956;52.442;13.284;2023-02-15T10:44:58;6.70;99.90
18126;DHT22;53956;52.442;13.284;2023-02-15T10:47:42;6.90;99.90
18126;DHT22;53956;52.442;13.284;2023-02-15T10:50:20;6.90;99.90
18126;DHT22;53956;52.442;13.284;2023-02-15T10:52:59;7.20;99.90
18126;DHT22;53956;52.442;13.284;2023-02-15T10:55:39;7.20;99.90
18126;DHT22;53956;52.442;13.284;2023-02-15T10:58:16;7.30;99.90
18126;DHT22;53956;52.442;13.284;2023-02-15T11:00:46;7.10;99.90
18126;DHT22;53956;52.442;13.284;2023-02-15T11:03:28;7.20;99.90
18126;DHT22;53956;52.442;13.284;2023-02-15T11:06:02;7.10;99.90
18126;DHT22;53956;52.442;13.284;2023-02-15T11:08:33;6.90;99.90
18126;DHT22;53956;52.442;13.284;2023-02-15T11:11:02;7.20;99.90
18126;DHT22;53956;52.442;13.284;2023-02-15T11:13:33;7.30;99.90
18126;DHT22;53956;52.442;13.284;2023-02-15T11:16:03;7.40;99.90
18126;DHT22;53956;52.442;13.284;2023-02-15T11:18:34;7.40;99.90
18126;DHT22;53956;52.442;13.284;2023-02-15T11:21:07;7.40;99.90
18126;DHT22;53956;52.442;13.284;2023-02-15T11:23:37;7.40;99.90
18126;DHT22;53956;52.442;13.284;2023-02-15T11:26:14;7.80;99.90
18126;DHT22;53956;52.442;13.284;2023-02-15T11:28:47;7.40;99.90
18126;DHT22;53956;52.442;13.284;2023-02-15T11:31:17;7.50;99.90
18126;DHT22;53956;52.442;13.284;2023-02-15T11:33:48;7.40;99.90
18126;DHT22;53956;52.442;13.284;2023-02-15T11:36:20;7.90;99.90
18126;DHT22;53956;52.442;13.284;2023-02-15T11:38:50;8.00;99.90
18126;DHT22;53956;52.442;13.284;2023-02-15T11:41:21;7.80;99.90
18126;DHT22;53956;52.442;13.284;2023-02-15T11:43:53;7.80;99.90
18126;DHT22;53956;52.442;13.284;2023-02-15T11:46:22;7.60;99.90
18126;DHT22;53956;52.442;13.284;2023-02-15T11:48:51;8.20;99.90
18126;DHT22;53956;52.442;13.284;2023-02-15T11:51:21;8.40;99.90
18126;DHT22;53956;52.442;13.284;2023-02-15T11:53:49;8.20;99.90
18126;DHT22;53956;52.442;13.284;2023-02-15T11:56:18;8.40;99.90
18126;DHT22;53956;52.442;13.284;2023-02-15T11:58:48;8.60;99.90
18126;DHT22;53956;52.442;13.284;2023-02-15T12:01:21;8.60;99.90
18126;DHT22;53956;52.442;13.284;2023-02-15T12:03:53;8.70;99.90
18126;DHT22;53956;52.442;13.284;2023-02-15T12:06:24;8.80;99.90
18126;DHT22;53956;52.442;13.284;2023-02-15T12:08:59;8.40;99.90
18126;DHT22;53956;52.442;13.284;2023-02-15T12:11:32;8.70;99.90
18126;DHT22;53956;52.442;13.284;2023-02-15T12:14:02;8.60;99.90
18126;DHT22;53956;52.442;13.284;2023-02-15T12:16:34;8.70;99.90
18126;DHT22;53956;52.442;13.284;2023-02-15T12:19:19;8.90;99.90
18126;DHT22;53956;52.442;13.284;2023-02-15T12:21:51;9.10;99.90
18126;DHT22;53956;52.442;13.284;2023-02-15T12:24:21;9.20;99.90
18126;DHT22;53956;52.442;13.284;2023-02-15T12:26:57;9.30;99.90
18126;DHT22;53956;52.442;13.284;2023-02-15T12:29:27;9.30;99.90
18126;DHT22;53956;52.442;13.284;2023-02-15T12:31:55;9.20;99.90
18126;DHT22;53956;52.442;13.284;2023-02-15T12:34:26;9.20;99.90
18126;DHT22;53956;52.442;13.284;2023-02-15T12:36:57;9.40;99.90
18126;DHT22;53956;52.442;13.284;2023-02-15T12:39:28;9.30;99.90
18126;DHT22;53956;52.442;13.284;2023-02-15T12:42:02;9.30;99.90
18126;DHT22;53956;52.442;13.284;2023-02-15T12:44:31;9.40;99.90
18126;DHT22;53956;52.442;13.284;2023-02-15T12:47:01;9.40;99.90
18126;DHT22;53956;52.442;13.284;2023-02-15T12:49:30;9.40;99.90
18126;DHT22;53956;52.442;13.284;2023-02-15T12:51:59;9.50;99.90
18126;DHT22;53956;52.442;13.284;2023-02-15T12:54:30;9.50;99.90
18126;DHT22;53956;52.442;13.284;2023-02-15T12:56:58;9.70;99.90
18126;DHT22;53956;52.442;13.284;2023-02-15T12:59:25;9.60;99.90
18126;DHT22;53956;52.442;13.284;2023-02-15T13:01:52;9.90;99.90
18126;DHT22;53956;52.442;13.284;2023-02-15T13:04:23;9.80;99.90
18126;DHT22;53956;52.442;13.284;2023-02-15T13:06:55;9.80;99.90
18126;DHT22;53956;52.442;13.284;2023-02-15T13:09:26;9.80;99.90
18126;DHT22;53956;52.442;13.284;2023-02-15T13:12:10;10.00;99.90
18126;DHT22;53956;52.442;13.284;2023-02-15T13:14:43;9.90;99.90
18126;DHT22;53956;52.442;13.284;2023-02-15T13:17:11;10.00;99.90
18126;DHT22;53956;52.442;13.284;2023-02-15T13:19:41;10.00;99.90
18126;DHT22;53956;52.442;13.284;2023-02-15T13:22:14;10.10;99.90
18126;DHT22;53956;52.442;13.284;2023-02-15T13:24:43;10.10;99.90
18126;DHT22;53956;52.442;13.284;2023-02-15T13:27:15;10.20;99.90
18126;DHT22;53956;52.442;13.284;2023-02-15T13:29:44;10.00;99.90
18126;DHT22;53956;52.442;13.284;2023-02-15T13:32:22;10.20;99.90
18126;DHT22;53956;52.442;13.284;2023-02-15T13:34:53;10.20;99.90
18126;DHT22;53956;52.442;13.284;2023-02-15T13:37:33;10.20;99.90
18126;DHT22;53956;52.442;13.284;2023-02-15T13:40:07;10.20;99.90
18126;DHT22;53956;52.442;13.284;2023-02-15T13:42:40;10.30;99.90
18126;DHT22;53956;52.442;13.284;2023-02-15T13:45:21;10.40;99.90
18126;DHT22;53956;52.442;13.284;2023-02-15T13:47:58;10.50;99.90
18126;DHT22;53956;52.442;13.284;2023-02-15T13:50:44;10.60;99.90
18126;DHT22;53956;52.442;13.284;2023-02-15T13:53:25;10.60;99.90
18126;DHT22;53956;52.442;13.284;2023-02-15T13:55:55;10.60;99.90
18126;DHT22;53956;52.442;13.284;2023-02-15T14:01:23;10.70;99.90
18126;DHT22;53956;52.442;13.284;2023-02-15T14:04:39;10.70;99.90
18126;DHT22;53956;52.442;13.284;2023-02-15T14:07:33;10.70;99.90
18126;DHT22;53956;52.442;13.284;2023-02-15T14:10:23;10.80;99.90
18126;DHT22;53956;52.442;13.284;2023-02-15T14:13:05;10.80;99.90
18126;DHT22;53956;52.442;13.284;2023-02-15T14:15:42;10.80;99.90
18126;DHT22;53956;52.442;13.284;2023-02-15T14:18:18;10.90;99.90
18126;DHT22;53956;52.442;13.284;2023-02-15T14:20:57;10.90;99.90
18126;DHT22;53956;52.442;13.284;2023-02-15T14:23:36;11.00;99.90
18126;DHT22;53956;52.442;13.284;2023-02-15T14:26:11;11.10;99.90
18126;DHT22;53956;52.442;13.284;2023-02-15T14:28:43;11.10;99.90
18126;DHT22;53956;52.442;13.284;2023-02-15T14:31:13;11.10;99.90
18126;DHT22;53956;52.442;13.284;2023-02-15T14:33:46;11.10;99.40
18126;DHT22;53956;52.442;13.284;2023-02-15T14:36:18;11.10;99.70
18126;DHT22;53956;52.442;13.284;2023-02-15T14:38:56;11.20;99.10
18126;DHT22;53956;52.442;13.284;2023-02-15T14:41:31;11.20;99.60
18126;DHT22;53956;52.442;13.284;2023-02-15T14:44:06;11.30;99.70
18126;DHT22;53956;52.442;13.284;2023-02-15T14:46:41;11.20;99.30
18126;DHT22;53956;52.442;13.284;2023-02-15T14:49:11;11.20;99.90
18126;DHT22;53956;52.442;13.284;2023-02-15T14:51:57;11.10;99.40
18126;DHT22;53956;52.442;13.284;2023-02-15T14:54:53;11.30;99.50
18126;DHT22;53956;52.442;13.284;2023-02-15T14:57:28;11.10;99.20
18126;DHT22;53956;52.442;13.284;2023-02-15T14:59:59;11.20;99.40
18126;DHT22;53956;52.442;13.284;2023-02-15T15:02:29;11.20;99.30
18126;DHT22;53956;52.442;13.284;2023-02-15T15:05:09;11.20;98.90
18126;DHT22;53956;52.442;13.284;2023-02-15T15:07:41;11.20;98.80
18126;DHT22;53956;52.442;13.284;2023-02-15T15:10:32;11.20;99.00
18126;DHT22;53956;52.442;13.284;2023-02-15T15:13:34;11.30;97.90
18126;DHT22;53956;52.442;13.284;2023-02-15T15:16:28;11.20;98.00
18126;DHT22;53956;52.442;13.284;2023-02-15T15:18:55;11.10;98.20
18126;DHT22;53956;52.442;13.284;2023-02-15T15:21:51;11.20;98.60
18126;DHT22;53956;52.442;13.284;2023-02-15T15:24:51;11.30;97.70
18126;DHT22;53956;52.442;13.284;2023-02-15T15:27:48;11.30;98.20
18126;DHT22;53956;52.442;13.284;2023-02-15T15:30:47;11.30;97.80
18126;DHT22;53956;52.442;13.284;2023-02-15T15:36:36;11.30;98.10
18126;DHT22;53956;52.442;13.284;2023-02-15T15:39:21;11.30;97.80
18126;DHT22;53956;52.442;13.284;2023-02-15T15:41:55;11.30;97.80
18126;DHT22;53956;52.442;13.284;2023-02-15T15:44:50;11.40;97.90
18126;DHT22;53956;52.442;13.284;2023-02-15T15:47:36;11.30;98.10
18126;DHT22;53956;52.442;13.284;2023-02-15T15:50:13;11.40;98.10
18126;DHT22;53956;52.442;13.284;2023-02-15T15:52:42;11.30;98.10
18126;DHT22;53956;52.442;13.284;2023-02-15T15:55:16;11.30;98.00
18126;DHT22;53956;52.442;13.284;2023-02-15T15:57:46;11.30;98.40
18126;DHT22;53956;52.442;13.284;2023-02-15T16:00:29;11.30;97.90
18126;DHT22;53956;52.442;13.284;2023-02-15T16:02:57;11.30;98.20
18126;DHT22;53956;52.442;13.284;2023-02-15T16:05:25;11.20;98.50
18126;DHT22;53956;52.442;13.284;2023-02-15T16:07:51;11.20;98.30
18126;DHT22;53956;52.442;13.284;2023-02-15T16:10:23;11.20;98.40
18126;DHT22;53956;52.442;13.284;2023-02-15T16:12:50;11.20;98.90